Time;durP1;ratioP1;P1;durP2;ratioP2;P2;SDS_P1;SDS_P2;PMS_P1;PMS_P2;Temp;Humidity;BMP_temperature;BMP_pressure;BME280_temperature;BME280_humidity;BME280_pressure;Samples;Min_cycle;Max_cycle;Signal;HPM_P1;HPM_P2
2023/08/16 00:00:17;;;;;;;4.63;3.43;;;21.60;1.00;;;;;;5036024;28;20449;-81
2023/08/16 00:02:45;;;;;;;9.37;5.10;;;21.60;1.00;;;;;;5036123;28;20460;-81
2023/08/16 00:05:13;;;;;;;6.07;4.47;;;21.60;1.00;;;;;;5035395;28;20440;-83
2023/08/16 00:07:42;;;;;;;7.77;3.90;;;21.60;1.00;;;;;;5035812;28;20449;-81
2023/08/16 00:10:11;;;;;;;6.23;4.20;;;21.60;1.00;;;;;;5035430;28;20481;-82
2023/08/16 00:12:38;;;;;;;5.60;4.17;;;21.60;11.40;;;;;;5036092;28;20449;-80
2023/08/16 00:15:06;;;;;;;5.07;4.27;;;21.50;25.90;;;;;;5035521;28;20455;-81
2023/08/16 00:17:33;;;;;;;6.40;4.80;;;21.50;42.00;;;;;;5035791;28;20472;-81
2023/08/16 00:20:00;;;;;;;5.83;4.80;;;21.50;26.90;;;;;;5035166;28;20469;-81
2023/08/16 00:22:27;;;;;;;6.30;4.47;;;21.40;34.30;;;;;;5034427;28;20979;-81
2023/08/16 00:24:55;;;;;;;7.53;5.47;;;21.40;30.10;;;;;;5035785;28;20454;-80
2023/08/16 00:27:22;;;;;;;5.87;4.23;;;21.40;34.80;;;;;;5035878;28;20833;-81
2023/08/16 00:29:49;;;;;;;5.10;4.03;;;21.30;57.40;;;;;;5035710;28;20485;-81
2023/08/16 00:32:16;;;;;;;5.30;4.53;;;21.30;90.60;;;;;;5036143;28;20839;-81
2023/08/16 00:34:42;;;;;;;7.13;4.37;;;21.30;56.50;;;;;;5037635;28;20449;-81
2023/08/16 00:37:09;;;;;;;6.67;5.07;;;21.30;41.90;;;;;;5034875;28;20491;-81
2023/08/16 00:39:38;;;;;;;7.40;4.87;;;21.30;49.30;;;;;;5035096;28;20476;-81
2023/08/16 00:42:06;;;;;;;5.47;4.87;;;21.30;54.30;;;;;;5035224;28;20540;-80
2023/08/16 00:44:34;;;;;;;5.17;4.50;;;21.20;99.90;;;;;;5035400;28;20457;-82
2023/08/16 00:47:02;;;;;;;6.07;4.50;;;21.20;99.90;;;;;;5034954;28;20449;-81
2023/08/16 00:49:30;;;;;;;4.70;4.30;;;21.20;99.90;;;;;;5035591;28;20583;-81
2023/08/16 00:51:57;;;;;;;9.80;4.83;;;21.20;87.60;;;;;;5034950;28;20906;-81
2023/08/16 00:54:23;;;;;;;5.67;4.30;;;21.10;88.00;;;;;;5035517;28;20455;-80
2023/08/16 00:56:51;;;;;;;5.97;5.07;;;21.10;93.60;;;;;;5034872;28;20457;-81
2023/08/16 00:59:19;;;;;;;5.40;4.90;;;21.10;99.90;;;;;;5030178;28;20476;-80
2023/08/16 01:01:46;;;;;;;6.73;4.30;;;21.00;99.90;;;;;;5033557;28;20471;-80
2023/08/16 01:04:15;;;;;;;5.53;4.80;;;21.10;99.90;;;;;;5031861;28;20445;-82
2023/08/16 01:06:42;;;;;;;6.37;5.77;;;21.00;99.90;;;;;;5034407;28;20453;-79
2023/08/16 01:09:09;;;;;;;5.33;4.40;;;21.00;99.90;;;;;;5035922;28;20513;-83
2023/08/16 01:11:42;;;;;;;5.40;4.90;;;21.00;99.90;;;;;;5035848;28;20481;-81
2023/08/16 01:14:12;;;;;;;5.83;4.90;;;20.90;99.90;;;;;;5036502;28;20995;-80
2023/08/16 01:16:42;;;;;;;7.17;4.97;;;20.90;99.90;;;;;;5036068;28;20459;-81
2023/08/16 01:19:11;;;;;;;7.10;5.77;;;20.80;99.90;;;;;;5035730;28;20580;-80
2023/08/16 01:21:43;;;;;;;6.20;5.60;;;20.80;99.90;;;;;;5034883;28;20456;-80
2023/08/16 01:24:19;;;;;;;5.53;4.70;;;20.80;99.90;;;;;;5035287;28;20521;-81
2023/08/16 01:26:48;;;;;;;6.20;4.60;;;20.80;99.90;;;;;;5036259;28;20929;-81
2023/08/16 01:29:18;;;;;;;6.70;5.90;;;20.70;99.90;;;;;;5035850;28;20500;-81
2023/08/16 01:31:45;;;;;;;6.67;5.30;;;20.70;99.90;;;;;;5035745;28;20489;-82
2023/08/16 01:34:11;;;;;;;7.07;5.40;;;20.70;99.90;;;;;;5036734;28;20960;-82
2023/08/16 01:36:38;;;;;;;7.00;5.60;;;20.70;99.90;;;;;;5035482;28;20469;-82
2023/08/16 01:39:05;;;;;;;9.43;6.00;;;20.60;99.90;;;;;;5036215;28;20483;-81
2023/08/16 01:41:36;;;;;;;7.70;5.63;;;20.60;99.90;;;;;;5034530;28;20448;-81
2023/08/16 01:44:07;;;;;;;5.57;5.07;;;20.60;99.90;;;;;;5035311;28;20444;-80
2023/08/16 01:46:34;;;;;;;7.70;5.50;;;20.60;99.90;;;;;;5035298;28;20455;-80
2023/08/16 01:49:02;;;;;;;5.93;5.37;;;20.50;99.90;;;;;;5034677;28;20826;-80
2023/08/16 01:51:29;;;;;;;6.70;5.73;;;20.50;99.90;;;;;;5035311;28;20493;-83
2023/08/16 01:53:56;;;;;;;7.63;5.47;;;20.40;99.90;;;;;;5035381;28;20456;-82
2023/08/16 01:56:23;;;;;;;5.57;5.03;;;20.40;99.90;;;;;;5035068;28;20444;-80
2023/08/16 01:58:50;;;;;;;8.30;6.03;;;20.40;99.90;;;;;;5035327;28;20858;-80
2023/08/16 02:01:18;;;;;;;7.40;6.70;;;20.40;99.90;;;;;;5036094;28;20441;-81
2023/08/16 02:03:45;;;;;;;6.00;5.20;;;20.30;99.90;;;;;;5036029;28;20449;-82
2023/08/16 02:06:12;;;;;;;5.70;5.07;;;20.30;99.90;;;;;;5035329;28;20459;-81
2023/08/16 02:08:39;;;;;;;7.30;5.53;;;20.30;99.90;;;;;;5034746;28;20487;-82
2023/08/16 02:11:05;;;;;;;5.80;5.30;;;20.30;99.90;;;;;;5034798;28;20489;-81
2023/08/16 02:13:32;;;;;;;6.80;5.60;;;20.30;99.90;;;;;;5035133;28;20448;-81
2023/08/16 02:16:00;;;;;;;8.43;5.57;;;20.30;99.90;;;;;;5034538;28;20836;-81
2023/08/16 02:18:30;;;;;;;5.83;5.10;;;20.20;99.90;;;;;;5034919;28;20495;-82
2023/08/16 02:20:57;;;;;;;8.13;5.50;;;20.20;99.90;;;;;;5035444;28;20445;-81
2023/08/16 02:23:24;;;;;;;7.53;5.20;;;20.20;99.90;;;;;;5035720;28;20449;-82
2023/08/16 02:25:51;;;;;;;7.17;5.37;;;20.10;99.90;;;;;;5035533;28;20459;-81
2023/08/16 02:28:17;;;;;;;6.13;5.63;;;20.10;99.90;;;;;;5035212;28;20505;-81
2023/08/16 02:30:44;;;;;;;6.33;4.90;;;20.10;99.90;;;;;;5034654;28;20878;-82
2023/08/16 02:33:11;;;;;;;6.90;5.40;;;20.00;99.90;;;;;;5035311;28;20828;-81
2023/08/16 02:35:39;;;;;;;6.83;5.43;;;20.00;99.90;;;;;;5035208;28;20453;-81
2023/08/16 02:38:06;;;;;;;8.33;5.40;;;20.10;99.90;;;;;;5036351;28;20501;-82
2023/08/16 02:40:33;;;;;;;6.63;5.20;;;20.00;99.90;;;;;;5036062;28;20471;-80
2023/08/16 02:42:59;;;;;;;5.50;5.00;;;20.00;99.90;;;;;;5036069;28;20541;-81
2023/08/16 02:45:26;;;;;;;8.03;5.10;;;20.00;99.90;;;;;;5037553;28;20525;-82
2023/08/16 02:47:53;;;;;;;7.90;5.67;;;20.00;99.90;;;;;;5039735;28;20464;-81
2023/08/16 02:50:20;;;;;;;5.97;5.20;;;19.90;99.90;;;;;;5039686;28;21054;-80
2023/08/16 02:52:48;;;;;;;6.53;5.10;;;19.90;99.90;;;;;;5039964;28;20467;-81
2023/08/16 02:55:15;;;;;;;6.60;4.83;;;19.90;99.90;;;;;;5039557;28;20543;-82
2023/08/16 02:57:42;;;;;;;6.77;5.00;;;19.90;99.90;;;;;;5041010;28;20540;-83
2023/08/16 03:00:10;;;;;;;5.80;5.10;;;19.80;99.90;;;;;;5040585;28;20453;-83
2023/08/16 03:02:37;;;;;;;5.90;5.10;;;19.80;99.90;;;;;;5039467;28;20486;-83
2023/08/16 03:05:04;;;;;;;6.23;4.60;;;19.80;99.90;;;;;;5039617;28;20822;-82
2023/08/16 03:07:31;;;;;;;7.03;5.10;;;19.80;99.90;;;;;;5040013;28;20448;-82
2023/08/16 03:09:59;;;;;;;5.83;5.23;;;19.80;99.90;;;;;;5033675;28;20473;-82
2023/08/16 03:12:26;;;;;;;5.83;4.77;;;19.70;99.90;;;;;;5035612;28;20548;-82
2023/08/16 03:14:53;;;;;;;7.73;4.97;;;19.70;99.90;;;;;;5031112;28;20449;-82
2023/08/16 03:17:20;;;;;;;6.87;4.93;;;19.70;99.90;;;;;;5039927;28;20452;-83
2023/08/16 03:19:47;;;;;;;5.80;5.17;;;19.60;99.90;;;;;;5040520;28;20567;-83
2023/08/16 03:22:14;;;;;;;5.70;5.20;;;19.60;99.90;;;;;;5032785;28;20445;-83
2023/08/16 03:24:40;;;;;;;7.30;5.07;;;19.60;99.90;;;;;;5040889;28;20536;-82
2023/08/16 03:27:09;;;;;;;7.60;5.00;;;19.60;99.90;;;;;;5040951;28;20452;-83
2023/08/16 03:29:36;;;;;;;5.57;5.03;;;19.50;99.90;;;;;;5042773;28;20479;-83
2023/08/16 03:32:03;;;;;;;6.97;6.00;;;19.50;99.90;;;;;;5040548;28;20498;-81
2023/08/16 03:34:30;;;;;;;6.60;5.40;;;19.50;99.90;;;;;;5038272;28;20539;-80
2023/08/16 03:36:57;;;;;;;6.47;5.90;;;19.50;99.90;;;;;;5034193;28;20996;-82
2023/08/16 03:39:23;;;;;;;6.37;5.20;;;19.50;99.90;;;;;;5034548;28;20568;-82
2023/08/16 03:41:51;;;;;;;6.93;6.30;;;19.40;99.90;;;;;;5037533;28;20453;-82
2023/08/16 03:44:19;;;;;;;9.37;6.03;;;19.40;99.90;;;;;;5032371;28;20478;-83
2023/08/16 03:46:46;;;;;;;7.43;5.60;;;19.40;99.90;;;;;;5032705;28;20472;-82
2023/08/16 03:49:12;;;;;;;6.80;5.30;;;19.40;99.90;;;;;;5026367;28;20465;-81
2023/08/16 03:51:40;;;;;;;7.40;6.20;;;19.50;99.90;;;;;;5017025;28;20489;-81
2023/08/16 03:54:06;;;;;;;6.93;5.63;;;19.50;99.90;;;;;;5017207;28;20452;-81
2023/08/16 03:56:33;;;;;;;8.87;5.00;;;19.50;99.90;;;;;;5016392;28;21017;-81
2023/08/16 03:59:00;;;;;;;5.87;5.27;;;19.60;99.90;;;;;;5016780;28;20472;-82
2023/08/16 04:01:28;;;;;;;7.50;6.13;;;19.60;99.90;;;;;;5031739;28;20453;-81
2023/08/16 04:03:55;;;;;;;7.10;5.70;;;19.60;99.90;;;;;;5035940;28;20452;-81
2023/08/16 04:06:22;;;;;;;6.07;5.47;;;19.60;99.90;;;;;;5035335;28;20454;-80
2023/08/16 04:08:49;;;;;;;6.73;6.10;;;19.70;99.90;;;;;;5036205;28;20456;-83
2023/08/16 04:11:15;;;;;;;6.03;5.37;;;19.70;99.90;;;;;;5036194;28;20484;-82
2023/08/16 04:13:42;;;;;;;5.90;5.37;;;19.70;99.90;;;;;;5036310;28;20462;-82
2023/08/16 04:16:09;;;;;;;6.20;5.70;;;19.70;99.90;;;;;;5035996;28;20458;-81
2023/08/16 04:18:37;;;;;;;7.37;6.30;;;19.80;99.90;;;;;;5035741;28;20465;-81
2023/08/16 04:21:04;;;;;;;7.10;6.30;;;19.80;99.90;;;;;;5035918;28;20539;-82
2023/08/16 04:23:31;;;;;;;6.63;5.93;;;19.80;99.90;;;;;;5035910;28;20440;-82
2023/08/16 04:25:58;;;;;;;7.33;5.80;;;19.80;99.90;;;;;;5029045;28;20972;-81
2023/08/16 04:28:24;;;;;;;6.50;5.70;;;19.90;99.90;;;;;;5029021;28;20471;-80
2023/08/16 04:30:51;;;;;;;8.30;6.20;;;19.90;99.90;;;;;;5035005;28;20484;-82
2023/08/16 04:33:18;;;;;;;7.60;6.77;;;19.90;99.90;;;;;;5036340;28;20457;-81
2023/08/16 04:35:46;;;;;;;6.00;5.40;;;19.90;99.90;;;;;;5035503;28;20459;-83
2023/08/16 04:38:14;;;;;;;7.93;6.30;;;19.90;99.90;;;;;;5035599;28;20472;-81
2023/08/16 04:40:41;;;;;;;7.37;6.67;;;20.00;99.90;;;;;;5036000;28;20488;-80
2023/08/16 04:43:08;;;;;;;8.17;7.37;;;20.00;99.90;;;;;;5036511;28;20451;-82
2023/08/16 04:45:35;;;;;;;9.57;8.13;;;20.00;99.90;;;;;;5036320;28;20453;-82
2023/08/16 04:48:02;;;;;;;11.13;7.80;;;20.00;99.90;;;;;;5037542;28;20528;-81
2023/08/16 04:50:28;;;;;;;8.97;7.03;;;20.00;99.90;;;;;;5036207;28;20448;-80
2023/08/16 04:52:56;;;;;;;10.47;8.10;;;20.00;99.90;;;;;;5036084;28;20484;-82
2023/08/16 04:55:23;;;;;;;7.90;7.10;;;20.10;99.90;;;;;;5036359;28;20466;-83
2023/08/16 04:57:50;;;;;;;10.30;8.07;;;20.10;99.90;;;;;;5036062;28;20465;-82
2023/08/16 05:00:19;;;;;;;8.60;7.70;;;20.10;99.90;;;;;;5036725;28;20865;-81
2023/08/16 05:02:45;;;;;;;10.87;6.97;;;20.20;99.90;;;;;;5036049;28;20797;-80
2023/08/16 05:05:12;;;;;;;8.80;6.50;;;20.20;99.90;;;;;;5036652;28;20455;-82
2023/08/16 05:07:39;;;;;;;7.10;6.40;;;20.20;99.90;;;;;;5035701;28;20460;-82
2023/08/16 05:10:08;;;;;;;7.40;6.60;;;20.30;99.90;;;;;;5036943;28;20543;-83
2023/08/16 05:12:35;;;;;;;7.97;6.60;;;20.20;99.90;;;;;;5036681;28;20484;-82
2023/08/16 05:15:02;;;;;;;7.90;7.10;;;20.30;99.90;;;;;;5036950;28;20463;-81
2023/08/16 05:17:28;;;;;;;10.50;7.40;;;20.30;99.90;;;;;;5028087;28;20489;-80
2023/08/16 05:19:55;;;;;;;11.80;6.97;;;20.30;99.90;;;;;;5029315;28;20472;-83
2023/08/16 05:22:24;;;;;;;7.73;6.10;;;20.30;99.90;;;;;;5031213;28;20461;-81
2023/08/16 05:24:53;;;;;;;10.47;7.30;;;20.30;99.90;;;;;;5030632;28;20457;-83
2023/08/16 05:27:21;;;;;;;8.50;7.13;;;20.40;99.90;;;;;;5033006;28;20523;-83
2023/08/16 05:29:48;;;;;;;6.47;5.87;;;20.40;99.90;;;;;;5033956;28;20469;-83
2023/08/16 05:32:15;;;;;;;8.23;6.07;;;20.40;99.90;;;;;;5032003;28;20487;-84
2023/08/16 05:34:42;;;;;;;7.60;6.30;;;20.40;99.90;;;;;;5033193;28;20463;-83
2023/08/16 05:37:09;;;;;;;8.13;7.00;;;20.40;99.90;;;;;;5039598;28;20525;-83
2023/08/16 05:39:40;;;;;;;6.33;5.57;;;20.40;99.90;;;;;;5087292;22;20510;-85
2023/08/16 05:44:52;;;;;;;7.30;6.17;;;20.40;99.90;;;;;;5067180;28;20537;-85
2023/08/16 05:47:18;;;;;;;6.80;6.10;;;20.40;99.90;;;;;;5069735;28;20515;-85
2023/08/16 05:49:45;;;;;;;5.53;4.90;;;20.40;99.90;;;;;;5069343;28;20490;-85
2023/08/16 05:52:12;;;;;;;7.43;5.53;;;20.40;99.90;;;;;;5068160;28;20484;-84
2023/08/16 05:54:39;;;;;;;5.83;4.63;;;20.30;99.90;;;;;;5074350;28;20450;-85
2023/08/16 05:57:06;;;;;;;6.50;5.10;;;20.30;99.90;;;;;;5072321;28;20462;-83
2023/08/16 05:59:32;;;;;;;7.63;4.87;;;20.30;99.90;;;;;;5073110;28;20511;-84
2023/08/16 06:02:01;;;;;;;9.60;5.80;;;20.40;99.90;;;;;;5066370;28;20992;-83
2023/08/16 06:04:28;;;;;;;7.43;5.23;;;20.30;99.90;;;;;;5065207;28;20443;-84
2023/08/16 06:06:55;;;;;;;8.47;4.93;;;20.30;99.90;;;;;;5078053;28;21169;-84
2023/08/16 06:09:22;;;;;;;7.03;5.10;;;20.30;99.90;;;;;;5078295;28;20494;-84
2023/08/16 06:11:50;;;;;;;6.77;5.43;;;20.20;99.90;;;;;;5063946;28;20686;-84
2023/08/16 06:14:17;;;;;;;7.83;6.40;;;20.20;99.90;;;;;;5073009;28;20533;-84
2023/08/16 06:16:43;;;;;;;6.30;5.10;;;20.10;99.90;;;;;;5074167;28;20464;-85
2023/08/16 06:19:13;;;;;;;8.20;6.07;;;20.10;99.90;;;;;;5072143;28;20972;-85
2023/08/16 06:21:41;;;;;;;6.83;5.53;;;20.10;99.90;;;;;;5078047;28;22145;-85
2023/08/16 06:24:10;;;;;;;6.70;6.10;;;20.10;99.90;;;;;;5074182;28;20452;-85
2023/08/16 06:26:36;;;;;;;7.50;6.10;;;20.10;99.90;;;;;;5073377;28;20451;-85
2023/08/16 06:29:03;;;;;;;6.57;5.90;;;20.10;99.90;;;;;;5070439;28;20542;-84
2023/08/16 06:31:30;;;;;;;7.23;6.53;;;20.10;99.90;;;;;;5074873;28;20559;-86
2023/08/16 06:33:57;;;;;;;7.27;6.07;;;20.20;99.90;;;;;;5068345;28;20897;-85
2023/08/16 06:36:25;;;;;;;7.73;6.47;;;20.20;99.90;;;;;;5072159;28;20486;-85
2023/08/16 06:38:53;;;;;;;10.63;8.40;;;20.30;99.90;;;;;;5067684;28;20490;-83
2023/08/16 06:41:20;;;;;;;9.03;8.13;;;20.40;99.90;;;;;;5072118;28;20474;-83
2023/08/16 06:43:47;;;;;;;8.60;7.70;;;20.40;99.90;;;;;;5071465;28;20465;-84
2023/08/16 06:46:14;;;;;;;7.90;7.20;;;20.50;99.90;;;;;;5074607;28;20506;-84
2023/08/16 06:48:40;;;;;;;7.10;6.40;;;20.50;99.90;;;;;;5068769;28;21039;-83
2023/08/16 06:51:07;;;;;;;9.10;6.90;;;20.60;99.90;;;;;;5076482;28;20534;-85
2023/08/16 06:53:38;;;;;;;9.00;6.60;;;20.60;99.90;;;;;;5060621;28;20484;-84
2023/08/16 06:56:05;;;;;;;9.10;7.27;;;20.60;99.90;;;;;;5059477;28;20456;-84
2023/08/16 06:58:32;;;;;;;7.47;6.23;;;20.70;99.90;;;;;;5077718;28;20842;-85
2023/08/16 07:00:59;;;;;;;7.60;6.90;;;20.70;99.90;;;;;;5077874;28;20447;-84
2023/08/16 07:03:26;;;;;;;6.40;5.60;;;20.80;99.90;;;;;;5079363;28;20439;-85
2023/08/16 07:05:54;;;;;;;9.47;6.20;;;20.90;99.90;;;;;;5076714;28;20510;-82
2023/08/16 07:08:20;;;;;;;5.77;5.20;;;21.00;99.90;;;;;;5074949;28;20454;-84
2023/08/16 07:10:49;;;;;;;5.23;4.70;;;21.00;99.90;;;;;;5075560;28;20446;-84
2023/08/16 07:13:16;;;;;;;5.57;4.90;;;21.10;99.90;;;;;;5073511;28;20487;-84
2023/08/16 07:15:43;;;;;;;7.03;4.93;;;21.10;99.90;;;;;;5073483;28;20459;-83
2023/08/16 07:18:10;;;;;;;5.53;4.97;;;21.20;99.90;;;;;;5076801;28;20455;-85
2023/08/16 07:20:36;;;;;;;4.90;4.40;;;21.20;99.90;;;;;;5075930;28;20467;-86
2023/08/16 07:23:06;;;;;;;6.10;4.60;;;21.30;99.90;;;;;;5076282;28;20443;-84
2023/08/16 07:25:33;;;;;;;7.73;4.57;;;21.30;99.90;;;;;;5076835;28;20465;-86
2023/08/16 07:28:04;;;;;;;6.23;5.33;;;21.40;99.90;;;;;;5076024;28;20942;-84
2023/08/16 07:30:31;;;;;;;5.30;4.30;;;21.40;99.90;;;;;;5076519;28;20971;-83
2023/08/16 07:32:57;;;;;;;5.70;4.67;;;21.40;99.90;;;;;;5080458;28;20491;-83
2023/08/16 07:35:24;;;;;;;5.40;4.90;;;21.40;99.90;;;;;;5080428;28;20982;-84
2023/08/16 07:37:51;;;;;;;5.97;4.87;;;21.40;99.90;;;;;;5080188;28;20469;-84
2023/08/16 07:40:18;;;;;;;6.20;5.40;;;21.30;99.90;;;;;;5080470;28;20870;-84
2023/08/16 07:42:45;;;;;;;4.63;4.03;;;21.30;99.90;;;;;;5080386;28;20473;-84
2023/08/16 07:45:13;;;;;;;6.63;4.40;;;21.40;99.90;;;;;;5080394;28;20453;-85
2023/08/16 07:47:40;;;;;;;5.27;4.10;;;21.40;99.90;;;;;;5080730;28;20546;-84
2023/08/16 07:50:07;;;;;;;7.60;3.83;;;21.40;99.90;;;;;;5080419;28;20507;-84
2023/08/16 07:52:34;;;;;;;6.63;4.27;;;21.50;99.90;;;;;;5080397;28;20486;-84
2023/08/16 07:55:01;;;;;;;4.90;4.40;;;21.50;99.90;;;;;;5080044;28;20549;-84
2023/08/16 07:57:28;;;;;;;5.43;4.00;;;21.50;99.90;;;;;;5079711;28;20546;-83
2023/08/16 07:59:55;;;;;;;4.67;4.00;;;21.60;99.90;;;;;;5080011;28;20481;-82
2023/08/16 08:02:23;;;;;;;4.47;3.90;;;21.60;99.90;;;;;;5080275;28;20454;-84
2023/08/16 08:04:50;;;;;;;4.67;4.13;;;21.70;99.90;;;;;;5080687;28;20542;-84
2023/08/16 08:07:18;;;;;;;4.50;3.90;;;21.70;99.90;;;;;;5081671;28;20516;-83
2023/08/16 08:09:45;;;;;;;4.87;4.13;;;21.80;99.90;;;;;;5079788;28;20474;-84
2023/08/16 08:12:12;;;;;;;4.60;3.63;;;21.80;99.90;;;;;;5079727;28;20573;-83
2023/08/16 08:14:38;;;;;;;4.50;4.10;;;21.90;99.90;;;;;;5079843;28;20896;-83
2023/08/16 08:17:05;;;;;;;5.67;5.10;;;22.00;99.90;;;;;;5079270;28;20447;-83
2023/08/16 08:19:33;;;;;;;5.90;4.60;;;22.00;99.90;;;;;;5079711;28;20515;-84
2023/08/16 08:22:01;;;;;;;6.37;4.50;;;22.00;99.90;;;;;;5079634;28;20538;-84
2023/08/16 08:24:28;;;;;;;6.73;4.93;;;22.00;99.90;;;;;;5080210;28;20459;-84
2023/08/16 08:26:56;;;;;;;6.47;4.03;;;22.00;99.90;;;;;;5078651;28;20459;-84
2023/08/16 08:29:25;;;;;;;6.80;3.83;;;22.00;99.90;;;;;;5078878;28;20471;-83
2023/08/16 08:31:52;;;;;;;6.37;4.00;;;22.00;99.90;;;;;;5078829;28;20455;-85
2023/08/16 08:34:19;;;;;;;8.53;4.30;;;21.90;99.90;;;;;;5078580;28;20455;-86
2023/08/16 08:36:47;;;;;;;5.37;3.80;;;21.90;99.90;;;;;;5078598;28;20458;-84
2023/08/16 08:39:18;;;;;;;5.40;4.30;;;21.90;99.90;;;;;;5078566;28;20566;-83
2023/08/16 08:41:47;;;;;;;4.90;3.63;;;21.80;99.90;;;;;;5078533;28;20457;-84
2023/08/16 08:44:14;;;;;;;4.10;3.47;;;21.80;99.90;;;;;;5078337;28;20526;-83
2023/08/16 08:46:43;;;;;;;5.90;3.57;;;21.90;99.90;;;;;;5078713;28;20869;-83
2023/08/16 08:49:11;;;;;;;5.40;4.43;;;21.90;99.90;;;;;;5078575;28;20483;-83
2023/08/16 08:51:42;;;;;;;4.73;3.70;;;22.00;99.90;;;;;;5079028;28;20533;-85
2023/08/16 08:54:11;;;;;;;4.73;3.30;;;22.10;99.90;;;;;;5078052;28;20538;-84
2023/08/16 08:56:38;;;;;;;4.63;3.73;;;22.20;99.90;;;;;;5077971;28;20486;-83
2023/08/16 08:59:06;;;;;;;7.70;3.73;;;22.30;99.90;;;;;;5078859;28;20987;-85
2023/08/16 09:01:34;;;;;;;4.30;3.90;;;22.30;99.90;;;;;;5079266;28;20884;-84
2023/08/16 09:04:03;;;;;;;6.00;4.60;;;22.30;99.90;;;;;;5078501;28;20541;-85
2023/08/16 09:06:30;;;;;;;5.97;3.70;;;22.40;99.90;;;;;;5078165;28;20473;-84
2023/08/16 09:08:57;;;;;;;5.33;3.50;;;22.40;99.90;;;;;;5078036;28;20549;-86
2023/08/16 09:11:26;;;;;;;8.60;4.67;;;22.50;99.90;;;;;;5078589;28;21014;-84
2023/08/16 09:13:54;;;;;;;7.43;5.07;;;22.50;99.90;;;;;;5079174;28;20576;-87
2023/08/16 09:16:21;;;;;;;9.27;7.27;;;22.50;99.90;;;;;;5079127;28;20447;-85
2023/08/16 09:18:48;;;;;;;10.00;7.23;;;22.50;99.90;;;;;;5078593;28;20586;-80
2023/08/16 09:21:18;;;;;;;11.20;7.60;;;22.50;99.90;;;;;;5079643;28;20455;-83
2023/08/16 09:23:45;;;;;;;11.60;8.53;;;22.40;99.90;;;;;;5079153;28;20497;-83
2023/08/16 09:26:15;;;;;;;9.63;7.97;;;22.40;99.90;;;;;;5080097;28;20461;-85
2023/08/16 09:28:43;;;;;;;9.70;7.63;;;22.30;99.90;;;;;;5082328;28;20488;-83
2023/08/16 09:31:10;;;;;;;9.03;8.23;;;22.30;99.90;;;;;;5074936;28;20482;-84
2023/08/16 09:33:39;;;;;;;10.10;9.07;;;22.30;99.90;;;;;;5074779;28;20835;-83
2023/08/16 09:36:06;;;;;;;9.93;7.77;;;22.30;99.90;;;;;;5075998;28;20474;-82
2023/08/16 09:38:39;;;;;;;7.23;6.53;;;22.30;99.90;;;;;;5080462;28;20451;-84
2023/08/16 09:41:13;;;;;;;8.57;7.77;;;22.30;99.90;;;;;;5080456;28;20923;-85
2023/08/16 09:43:40;;;;;;;11.63;7.80;;;22.30;99.90;;;;;;5079985;28;20461;-86
2023/08/16 09:46:09;;;;;;;9.60;7.97;;;22.30;99.90;;;;;;5081730;28;20453;-84
2023/08/16 09:48:36;;;;;;;14.40;9.73;;;22.40;99.90;;;;;;5085295;28;20474;-84
2023/08/16 09:51:04;;;;;;;14.07;12.40;;;22.30;99.90;;;;;;5093676;28;20625;-83
2023/08/16 09:53:31;;;;;;;13.93;11.63;;;22.30;99.90;;;;;;5093811;28;20501;-81
2023/08/16 09:56:00;;;;;;;12.23;10.90;;;22.30;99.90;;;;;;5094046;28;20431;-84
2023/08/16 09:58:28;;;;;;;13.40;11.67;;;22.30;99.90;;;;;;5094367;28;20453;-83
2023/08/16 10:00:56;;;;;;;17.00;12.17;;;22.40;99.90;;;;;;5084839;28;20998;-83
2023/08/16 10:03:25;;;;;;;15.70;13.13;;;22.40;99.90;;;;;;5078204;28;20453;-82
2023/08/16 10:05:54;;;;;;;14.80;12.23;;;22.40;99.90;;;;;;5077234;28;20451;-83
2023/08/16 10:08:21;;;;;;;18.80;14.10;;;22.50;99.90;;;;;;5076012;28;20451;-82
2023/08/16 10:10:48;;;;;;;16.63;14.67;;;22.50;99.90;;;;;;5076744;28;20510;-82
2023/08/16 10:13:16;;;;;;;16.40;13.40;;;22.60;99.90;;;;;;5075712;28;20510;-82
2023/08/16 10:15:46;;;;;;;16.10;13.53;;;22.60;99.90;;;;;;5074915;28;20461;-82
2023/08/16 10:18:13;;;;;;;13.50;10.70;;;22.60;99.90;;;;;;5074767;28;20431;-83
2023/08/16 10:20:45;;;;;;;13.83;11.57;;;22.50;99.90;;;;;;5075254;28;20459;-84
2023/08/16 10:23:13;;;;;;;15.60;12.30;;;22.50;99.90;;;;;;5075785;28;20451;-85
2023/08/16 10:25:45;;;;;;;14.47;12.40;;;22.40;99.90;;;;;;5074859;28;20530;-81
2023/08/16 10:28:13;;;;;;;12.10;10.00;;;22.30;99.90;;;;;;5075135;28;20812;-85
2023/08/16 10:30:42;;;;;;;13.30;11.10;;;22.30;99.90;;;;;;5075662;28;20558;-82
2023/08/16 10:33:13;;;;;;;14.40;11.00;;;22.20;99.90;;;;;;5076902;28;20572;-85
2023/08/16 10:35:43;;;;;;;14.03;11.10;;;22.20;99.90;;;;;;5076161;28;20471;-82
2023/08/16 10:38:10;;;;;;;12.27;10.97;;;22.20;99.90;;;;;;5075447;28;20451;-84
2023/08/16 10:40:37;;;;;;;12.77;11.30;;;22.20;99.90;;;;;;5075123;28;20540;-82
2023/08/16 10:43:06;;;;;;;13.10;11.30;;;22.30;99.90;;;;;;5074946;28;20451;-83
2023/08/16 10:45:34;;;;;;;14.03;11.27;;;22.30;99.90;;;;;;5075159;28;20557;-83
2023/08/16 10:48:11;;;;;;;14.50;11.13;;;22.30;99.90;;;;;;5075305;28;20973;-84
2023/08/16 10:50:38;;;;;;;12.50;11.20;;;22.30;99.90;;;;;;5075638;28;20467;-83
2023/08/16 10:53:07;;;;;;;12.73;11.40;;;22.30;99.90;;;;;;5075799;28;20482;-82
2023/08/16 10:55:34;;;;;;;19.80;13.60;;;22.30;99.90;;;;;;5076053;28;20443;-83
2023/08/16 10:58:02;;;;;;;16.37;14.43;;;22.40;99.90;;;;;;5074490;28;20451;-81
2023/08/16 11:00:32;;;;;;;17.20;13.90;;;22.40;99.90;;;;;;5074450;28;20486;-85
2023/08/16 11:03:01;;;;;;;19.10;12.87;;;22.40;99.90;;;;;;5074481;28;20531;-83
2023/08/16 11:05:31;;;;;;;16.10;13.23;;;22.40;99.90;;;;;;5074483;28;20460;-84
2023/08/16 11:08:01;;;;;;;14.60;11.17;;;22.40;99.90;;;;;;5079674;28;20435;-82
2023/08/16 11:10:36;;;;;;;19.90;13.07;;;22.40;99.90;;;;;;5078546;28;20479;-82
2023/08/16 11:13:04;;;;;;;14.47;11.93;;;22.40;99.90;;;;;;5078472;28;20652;-81
2023/08/16 11:15:31;;;;;;;12.83;11.43;;;22.40;99.90;;;;;;5078234;28;20482;-84
2023/08/16 11:17:58;;;;;;;13.53;11.20;;;22.40;99.90;;;;;;5078559;28;20485;-83
2023/08/16 11:20:26;;;;;;;11.60;10.37;;;22.40;99.90;;;;;;5069015;28;20498;-83
2023/08/16 11:22:54;;;;;;;16.90;11.57;;;22.40;99.90;;;;;;5079422;28;20454;-83
2023/08/16 11:25:21;;;;;;;13.13;10.53;;;22.40;99.90;;;;;;5082005;28;20450;-84
2023/08/16 11:27:50;;;;;;;12.83;10.23;;;22.40;99.90;;;;;;5080169;28;20947;-83
2023/08/16 11:30:17;;;;;;;12.60;10.27;;;22.50;99.90;;;;;;5079306;28;20501;-83
2023/08/16 11:32:44;;;;;;;11.70;9.50;;;22.50;99.90;;;;;;5079569;28;20950;-82
2023/08/16 11:35:13;;;;;;;11.27;8.53;;;22.50;99.90;;;;;;5079038;28;20815;-86
2023/08/16 11:37:41;;;;;;;11.10;8.00;;;22.60;99.90;;;;;;5062132;28;20962;-84
2023/08/16 11:40:09;;;;;;;9.30;8.40;;;22.60;99.90;;;;;;5074926;22;20582;-82
2023/08/16 11:42:36;;;;;;;12.47;7.90;;;22.70;99.90;;;;;;5061002;28;20448;-83
2023/08/16 11:45:19;;;;;;;8.30;7.33;;;22.70;99.90;;;;;;5061174;28;20503;-81
2023/08/16 11:47:50;;;;;;;11.67;7.90;;;22.80;99.90;;;;;;5060860;28;20456;-83
2023/08/16 11:50:17;;;;;;;8.63;7.43;;;22.80;99.90;;;;;;5060003;28;20467;-80
2023/08/16 11:52:45;;;;;;;7.87;7.07;;;22.90;99.90;;;;;;5060475;28;20451;-81
2023/08/16 11:55:15;;;;;;;9.83;7.47;;;22.90;99.90;;;;;;5059153;28;20517;-82
2023/08/16 11:57:45;;;;;;;9.80;6.87;;;23.00;99.90;;;;;;5060446;28;20527;-80
2023/08/16 12:00:15;;;;;;;8.70;6.90;;;23.10;99.90;;;;;;5060582;28;20544;-82
2023/08/16 12:02:44;;;;;;;11.20;7.50;;;23.10;99.90;;;;;;5060554;28;20463;-82
2023/08/16 12:05:14;;;;;;;10.83;8.20;;;23.20;99.90;;;;;;5063208;28;20451;-84
2023/08/16 12:07:44;;;;;;;7.97;7.00;;;23.20;99.90;;;;;;5060974;28;20450;-82
2023/08/16 12:10:22;;;;;;;7.00;6.27;;;23.30;99.90;;;;;;5061758;28;20541;-82
2023/08/16 12:12:52;;;;;;;13.07;7.60;;;23.40;99.90;;;;;;5063638;28;20451;-79
2023/08/16 12:15:22;;;;;;;9.10;7.10;;;23.40;99.90;;;;;;5060482;28;20483;-79
2023/08/16 12:17:49;;;;;;;11.00;6.77;;;23.30;99.90;;;;;;5058353;28;20443;-83
2023/08/16 12:20:16;;;;;;;6.93;6.10;;;23.40;99.90;;;;;;5057951;28;20478;-82
2023/08/16 12:22:42;;;;;;;10.67;8.17;;;23.50;99.90;;;;;;5056718;28;20531;-82
2023/08/16 12:25:09;;;;;;;7.87;6.63;;;23.60;99.90;;;;;;5057644;28;20820;-81
2023/08/16 12:27:36;;;;;;;13.53;8.07;;;23.70;99.90;;;;;;5058849;28;20491;-80
2023/08/16 12:30:04;;;;;;;10.90;7.90;;;23.70;77.40;;;;;;5059033;28;20486;-81
2023/08/16 12:32:32;;;;;;;7.17;5.93;;;23.70;90.40;;;;;;5061032;28;20459;-80
2023/08/16 12:34:59;;;;;;;7.70;6.33;;;23.70;99.90;;;;;;5065674;28;20512;-78
2023/08/16 12:37:26;;;;;;;7.60;6.80;;;23.70;99.90;;;;;;5066213;28;20547;-81
2023/08/16 12:39:53;;;;;;;10.80;9.20;;;23.70;99.90;;;;;;5067746;28;20481;-78
2023/08/16 12:42:19;;;;;;;8.87;7.57;;;23.70;99.90;;;;;;5069461;28;20436;-82
2023/08/16 12:44:46;;;;;;;10.67;7.00;;;23.80;99.90;;;;;;5068522;28;20458;-84
2023/08/16 12:47:13;;;;;;;10.63;7.07;;;23.80;99.90;;;;;;5062336;28;20538;-83